Time;durP1;ratioP1;P1;durP2;ratioP2;P2;SDS_P1;SDS_P2;PMS_P1;PMS_P2;Temp;Humidity;BMP_temperature;BMP_pressure;BME280_temperature;BME280_humidity;BME280_pressure;Samples;Min_cycle;Max_cycle;Signal;HPM_P1;HPM_P2
2021/03/16 05:12:00;;;;;;;1.20;1.20;;;4.20;99.90;;;;;;5276911;23;20219;-80
2021/03/16 05:14:26;;;;;;;1.30;1.30;;;4.20;99.90;;;;;;5029781;28;20261;-78
2021/03/16 05:16:53;;;;;;;1.20;1.20;;;4.10;99.90;;;;;;5028697;28;20233;-78
2021/03/16 05:19:20;;;;;;;1.37;1.37;;;4.10;99.90;;;;;;5030133;28;20217;-78
2021/03/16 05:21:47;;;;;;;1.20;1.20;;;4.10;99.90;;;;;;5026140;28;20223;-78
2021/03/16 05:24:14;;;;;;;1.20;1.20;;;4.10;99.90;;;;;;5019572;28;20614;-79
2021/03/16 05:26:41;;;;;;;1.37;1.37;;;4.10;99.90;;;;;;5016496;28;20199;-79
2021/03/16 05:29:08;;;;;;;1.40;1.40;;;4.10;99.90;;;;;;5011628;28;20251;-79
2021/03/16 05:31:35;;;;;;;1.27;1.27;;;4.10;99.90;;;;;;5015628;28;20219;-79
2021/03/16 05:34:02;;;;;;;1.40;1.40;;;4.20;99.90;;;;;;5017027;28;20281;-79
2021/03/16 05:36:29;;;;;;;1.30;1.30;;;4.20;99.90;;;;;;5016324;28;20207;-78
2021/03/16 05:38:56;;;;;;;1.30;1.30;;;4.30;99.90;;;;;;5016881;28;20200;-78
2021/03/16 05:41:23;;;;;;;1.10;1.10;;;4.30;99.90;;;;;;5018001;28;20224;-79
2021/03/16 05:43:51;;;;;;;1.47;1.47;;;4.20;99.90;;;;;;5017974;28;20211;-79
2021/03/16 05:46:19;;;;;;;1.20;1.20;;;4.30;99.90;;;;;;5016747;28;20199;-79
2021/03/16 05:48:51;;;;;;;1.30;1.30;;;4.30;99.90;;;;;;5017899;28;20208;-80
2021/03/16 05:51:18;;;;;;;1.20;1.20;;;4.30;99.90;;;;;;5017801;28;20227;-79
2021/03/16 05:53:48;;;;;;;1.20;1.20;;;4.30;99.90;;;;;;5017538;28;20219;-80
2021/03/16 05:56:15;;;;;;;1.20;1.20;;;4.40;99.90;;;;;;5016594;28;20208;-79
2021/03/16 05:58:42;;;;;;;1.40;1.40;;;4.40;99.90;;;;;;5017116;28;20261;-80
2021/03/16 06:01:10;;;;;;;1.30;1.30;;;4.40;99.90;;;;;;5016264;28;20226;-78
2021/03/16 06:03:38;;;;;;;1.20;1.20;;;4.30;99.90;;;;;;5015420;28;20195;-78
2021/03/16 06:06:05;;;;;;;1.30;1.30;;;4.30;99.90;;;;;;5014239;28;20801;-80
2021/03/16 06:08:32;;;;;;;1.00;1.00;;;4.40;99.90;;;;;;5011327;28;20273;-80
2021/03/16 06:10:59;;;;;;;1.10;1.10;;;4.50;99.90;;;;;;4993930;28;20240;-79
2021/03/16 06:13:26;;;;;;;1.17;1.17;;;4.40;99.90;;;;;;4993674;28;20271;-78
2021/03/16 06:15:53;;;;;;;1.27;1.27;;;4.30;99.90;;;;;;4993110;28;20647;-78
2021/03/16 06:18:25;;;;;;;1.10;1.10;;;4.30;99.90;;;;;;4992690;28;20208;-77
2021/03/16 06:21:03;;;;;;;1.27;1.27;;;4.30;99.90;;;;;;5002174;28;20234;-78
2021/03/16 06:23:31;;;;;;;1.00;1.00;;;4.30;99.90;;;;;;5005226;28;20206;-77
2021/03/16 06:25:59;;;;;;;1.20;1.20;;;4.30;99.90;;;;;;5004154;28;20230;-78
2021/03/16 06:28:31;;;;;;;1.40;1.40;;;4.40;99.90;;;;;;5002530;28;20200;-77
2021/03/16 06:30:58;;;;;;;1.37;1.37;;;4.30;99.90;;;;;;5002885;28;20228;-79
2021/03/16 06:33:28;;;;;;;1.27;1.27;;;4.40;99.90;;;;;;5002075;28;20651;-78
2021/03/16 06:35:57;;;;;;;1.50;1.50;;;4.40;99.90;;;;;;5002414;28;20204;-79
2021/03/16 06:38:26;;;;;;;1.20;1.20;;;4.40;99.90;;;;;;4993997;28;20196;-78
2021/03/16 06:40:53;;;;;;;1.20;1.20;;;4.40;99.90;;;;;;4994308;28;20216;-79
2021/03/16 06:43:23;;;;;;;1.20;1.20;;;4.40;99.90;;;;;;4994947;28;20405;-79
2021/03/16 06:45:52;;;;;;;1.30;1.30;;;4.50;99.90;;;;;;4995331;28;20266;-79
2021/03/16 06:48:20;;;;;;;1.10;1.10;;;4.50;99.90;;;;;;4996042;28;20247;-79
2021/03/16 06:50:49;;;;;;;1.10;1.10;;;4.50;99.90;;;;;;4995839;28;20216;-80
2021/03/16 06:53:28;;;;;;;1.20;1.20;;;4.60;99.90;;;;;;4994151;28;20228;-78
2021/03/16 06:56:02;;;;;;;1.27;1.27;;;4.80;99.90;;;;;;4995794;28;20210;-78
2021/03/16 06:58:32;;;;;;;1.20;1.20;;;4.70;99.90;;;;;;4994710;28;20638;-79
2021/03/16 07:01:06;;;;;;;1.37;1.37;;;4.80;99.90;;;;;;4994292;28;20228;-78
2021/03/16 07:03:35;;;;;;;1.30;1.30;;;4.70;99.90;;;;;;4995833;28;20215;-79
2021/03/16 07:06:21;;;;;;;1.20;1.20;;;4.70;99.90;;;;;;4995671;28;20294;-79
2021/03/16 07:08:50;;;;;;;1.10;1.10;;;4.70;99.90;;;;;;4996321;28;20676;-80
2021/03/16 07:11:19;;;;;;;1.20;1.20;;;4.80;99.90;;;;;;4995809;28;20231;-79
2021/03/16 07:13:46;;;;;;;1.20;1.20;;;4.80;99.90;;;;;;4997255;28;20274;-79
2021/03/16 07:16:14;;;;;;;1.13;1.13;;;4.80;99.90;;;;;;4999989;28;20223;-79
2021/03/16 07:18:42;;;;;;;1.17;1.17;;;4.80;99.90;;;;;;5001067;28;20199;-79
2021/03/16 07:26:40;;;;;;;1.27;1.27;;;4.70;99.90;;;;;;5335386;23;20295;-78
2021/03/16 07:29:08;;;;;;;1.20;1.20;;;4.60;99.90;;;;;;4970983;28;20629;-77
2021/03/16 07:31:36;;;;;;;1.20;1.20;;;4.60;99.90;;;;;;4970342;28;20290;-78
2021/03/16 07:34:05;;;;;;;1.23;1.23;;;4.50;99.90;;;;;;4961685;28;20220;-77
2021/03/16 07:36:33;;;;;;;1.20;1.20;;;4.50;99.90;;;;;;4970893;28;20224;-77
2021/03/16 07:39:01;;;;;;;1.17;1.17;;;4.50;99.90;;;;;;4966994;28;20208;-77
2021/03/16 07:41:28;;;;;;;1.40;1.40;;;4.60;99.90;;;;;;4958342;28;20201;-78
2021/03/16 07:44:04;;;;;;;1.30;1.30;;;4.60;99.90;;;;;;4970222;28;20202;-78
2021/03/16 07:46:46;;;;;;;1.20;1.20;;;4.60;99.90;;;;;;4971426;28;20220;-78
2021/03/16 07:49:14;;;;;;;1.20;1.20;;;4.60;99.90;;;;;;4977239;28;20199;-78
2021/03/16 07:51:43;;;;;;;1.20;1.20;;;4.60;99.90;;;;;;4977133;28;20216;-77
2021/03/16 07:54:12;;;;;;;1.30;1.30;;;4.50;99.90;;;;;;4977687;28;20225;-78
2021/03/16 07:56:41;;;;;;;1.10;1.10;;;4.60;99.90;;;;;;4963488;28;20279;-77
2021/03/16 07:59:09;;;;;;;1.20;1.20;;;4.60;99.90;;;;;;4961144;28;20201;-78
2021/03/16 08:01:47;;;;;;;1.30;1.30;;;4.60;99.90;;;;;;4959457;29;20264;-78
2021/03/16 08:04:14;;;;;;;1.30;1.30;;;4.50;99.90;;;;;;4960852;28;20256;-79
2021/03/16 08:06:42;;;;;;;1.20;1.20;;;4.60;99.90;;;;;;4970499;28;20216;-78
2021/03/16 08:09:21;;;;;;;1.10;1.10;;;4.60;99.90;;;;;;4977725;28;20209;-78
2021/03/16 08:11:48;;;;;;;1.10;1.10;;;4.60;99.90;;;;;;4982107;28;20208;-78
2021/03/16 08:14:28;;;;;;;1.20;1.20;;;4.60;99.90;;;;;;4983298;28;20220;-79
2021/03/16 08:16:55;;;;;;;1.33;1.33;;;4.70;99.90;;;;;;4982479;28;20748;-79
2021/03/16 08:19:34;;;;;;;1.20;1.20;;;4.70;99.90;;;;;;4981290;28;20208;-79
2021/03/16 08:22:01;;;;;;;1.20;1.20;;;4.80;99.90;;;;;;4980524;28;20192;-77
2021/03/16 08:24:37;;;;;;;1.30;1.30;;;4.80;99.90;;;;;;4981380;28;20628;-79
2021/03/16 08:27:07;;;;;;;1.30;1.30;;;4.80;99.90;;;;;;4979111;28;20251;-77
2021/03/16 08:29:35;;;;;;;1.10;1.10;;;4.80;99.90;;;;;;4963253;28;20213;-78
2021/03/16 08:32:03;;;;;;;1.27;1.27;;;4.90;99.90;;;;;;4962157;28;20241;-78
2021/03/16 08:34:31;;;;;;;1.10;1.10;;;5.00;99.90;;;;;;4972962;28;20244;-78
2021/03/16 08:36:58;;;;;;;1.20;1.20;;;5.00;99.90;;;;;;4983051;28;20232;-78
2021/03/16 08:39:26;;;;;;;1.30;1.30;;;5.00;99.90;;;;;;4978168;28;20209;-77
2021/03/16 08:41:55;;;;;;;1.10;1.10;;;5.10;99.90;;;;;;4981753;28;20213;-78
2021/03/16 08:44:22;;;;;;;1.40;1.40;;;5.20;99.90;;;;;;4980974;28;20201;-78
2021/03/16 08:46:50;;;;;;;1.20;1.20;;;5.30;99.90;;;;;;4969728;28;20453;-78
2021/03/16 08:49:18;;;;;;;1.27;1.27;;;5.40;99.90;;;;;;4974205;28;20296;-78
2021/03/16 08:51:44;;;;;;;1.00;1.00;;;5.50;99.90;;;;;;4963636;28;20204;-77
2021/03/16 08:54:21;;;;;;;1.30;1.30;;;5.50;99.90;;;;;;4976936;28;20648;-79
2021/03/16 08:56:49;;;;;;;1.20;1.20;;;5.30;99.90;;;;;;4958975;28;20295;-77
2021/03/16 08:59:18;;;;;;;1.10;1.10;;;5.50;99.90;;;;;;4956893;29;20593;-78
2021/03/16 09:01:52;;;;;;;1.23;1.23;;;5.50;99.90;;;;;;4960135;28;20205;-77
2021/03/16 09:04:20;;;;;;;1.13;1.13;;;5.50;99.90;;;;;;4975296;28;20252;-77
2021/03/16 09:06:50;;;;;;;1.20;1.20;;;5.60;99.90;;;;;;4974631;28;20278;-78
2021/03/16 09:09:24;;;;;;;1.23;1.23;;;5.60;99.90;;;;;;4966531;28;20198;-76
2021/03/16 09:11:52;;;;;;;1.20;1.20;;;5.60;99.90;;;;;;4953741;28;20204;-77
2021/03/16 09:14:20;;;;;;;1.30;1.30;;;5.50;99.90;;;;;;4955141;29;20236;-77
2021/03/16 09:16:49;;;;;;;1.27;1.27;;;5.50;99.90;;;;;;4954433;28;20221;-77
2021/03/16 09:19:19;;;;;;;1.27;1.27;;;5.40;99.90;;;;;;4957061;29;20216;-77
2021/03/16 09:21:52;;;;;;;1.00;1.00;;;5.40;99.90;;;;;;4956846;28;20208;-76
2021/03/16 09:24:21;;;;;;;1.37;1.37;;;5.50;99.90;;;;;;4977235;28;20201;-78
2021/03/16 09:26:58;;;;;;;1.10;1.10;;;5.40;99.90;;;;;;4978771;28;20641;-76
2021/03/16 09:29:28;;;;;;;1.03;1.03;;;5.50;99.90;;;;;;4979380;28;20755;-78
2021/03/16 09:32:01;;;;;;;1.27;1.27;;;5.40;99.90;;;;;;4979955;28;20608;-78
2021/03/16 09:34:29;;;;;;;1.10;1.10;;;5.60;99.90;;;;;;4979831;28;20724;-77
2021/03/16 09:36:58;;;;;;;1.30;1.30;;;5.70;99.90;;;;;;4977322;28;20224;-77
2021/03/16 09:39:25;;;;;;;1.40;1.40;;;5.70;99.90;;;;;;4979127;28;20669;-77
2021/03/16 09:41:54;;;;;;;1.20;1.20;;;5.90;99.90;;;;;;4977412;28;20204;-77
2021/03/16 09:44:30;;;;;;;1.27;1.27;;;5.90;99.90;;;;;;4977651;28;20291;-77
2021/03/16 09:46:57;;;;;;;1.20;1.20;;;5.90;99.90;;;;;;4975867;28;20279;-77
2021/03/16 09:49:29;;;;;;;1.30;1.30;;;6.00;99.90;;;;;;4978815;28;20218;-77
2021/03/16 09:52:04;;;;;;;1.30;1.30;;;6.00;99.90;;;;;;4976921;28;20209;-77
2021/03/16 09:54:37;;;;;;;1.30;1.30;;;6.10;99.90;;;;;;4976519;28;20208;-77
2021/03/16 09:57:08;;;;;;;1.23;1.23;;;6.20;99.90;;;;;;4977352;28;20232;-77
2021/03/16 09:59:37;;;;;;;1.20;1.20;;;6.20;99.90;;;;;;4977718;28;20685;-77
2021/03/16 10:02:05;;;;;;;1.30;1.30;;;6.40;99.90;;;;;;4978346;28;20244;-77
2021/03/16 10:04:47;;;;;;;1.20;1.20;;;6.30;99.90;;;;;;4975581;28;20260;-76
2021/03/16 10:07:25;;;;;;;1.00;1.00;;;6.30;99.90;;;;;;4976770;28;20235;-80
2021/03/16 10:09:52;;;;;;;1.40;1.40;;;6.30;99.90;;;;;;4977193;28;20215;-77
2021/03/16 10:12:20;;;;;;;1.20;1.20;;;6.50;99.90;;;;;;4976421;28;20768;-77
2021/03/16 10:14:49;;;;;;;1.00;1.00;;;6.60;99.90;;;;;;4977025;28;20224;-76
2021/03/16 10:17:35;;;;;;;1.20;1.20;;;6.90;99.90;;;;;;4978529;28;20236;-77
2021/03/16 10:20:07;;;;;;;1.20;1.20;;;6.90;99.90;;;;;;4977459;28;20200;-79
2021/03/16 10:22:35;;;;;;;1.20;1.20;;;7.00;99.90;;;;;;4974157;28;20212;-79
2021/03/16 10:25:05;;;;;;;1.27;1.27;;;7.20;99.90;;;;;;4971772;28;20225;-80
2021/03/16 10:27:33;;;;;;;1.03;1.03;;;7.10;99.90;;;;;;4971981;28;20256;-79
2021/03/16 10:30:04;;;;;;;1.30;1.30;;;7.10;99.90;;;;;;4978316;28;20291;-78
2021/03/16 10:32:31;;;;;;;1.00;1.00;;;7.00;99.90;;;;;;4976784;28;20493;-76
2021/03/16 10:34:58;;;;;;;1.10;1.10;;;7.00;99.90;;;;;;4975861;28;20235;-78
2021/03/16 10:37:26;;;;;;;1.00;1.00;;;7.00;99.90;;;;;;4977643;28;20307;-78
2021/03/16 10:39:55;;;;;;;1.30;1.30;;;7.10;99.90;;;;;;4976170;28;20208;-78
2021/03/16 10:42:22;;;;;;;1.20;1.20;;;7.10;99.90;;;;;;4978433;28;20231;-80
2021/03/16 10:44:49;;;;;;;0.90;0.90;;;7.10;99.90;;;;;;4978450;28;20212;-80
2021/03/16 10:47:17;;;;;;;1.20;1.20;;;7.00;99.90;;;;;;4977725;28;20519;-80
2021/03/16 10:49:44;;;;;;;1.20;1.20;;;7.10;99.90;;;;;;4970294;28;20205;-78
2021/03/16 10:52:12;;;;;;;1.10;1.10;;;7.30;99.90;;;;;;4962280;28;20209;-77
2021/03/16 10:54:40;;;;;;;1.20;1.20;;;7.50;99.90;;;;;;4971799;28;20220;-79
2021/03/16 10:57:07;;;;;;;1.10;1.10;;;7.30;99.90;;;;;;4964579;28;20233;-77
2021/03/16 10:59:34;;;;;;;1.17;1.17;;;7.20;99.90;;;;;;4972078;28;20204;-77
2021/03/16 11:02:01;;;;;;;1.10;1.10;;;7.10;99.90;;;;;;4976772;28;20212;-79
2021/03/16 11:04:28;;;;;;;1.20;1.20;;;7.10;99.90;;;;;;4973275;28;20197;-77
2021/03/16 11:06:55;;;;;;;1.30;1.30;;;7.10;99.90;;;;;;4959349;28;20224;-79
2021/03/16 11:09:22;;;;;;;1.20;1.20;;;7.40;99.90;;;;;;4959651;29;20212;-77
2021/03/16 11:11:50;;;;;;;1.10;1.10;;;7.70;99.90;;;;;;4958653;29;20213;-78
2021/03/16 11:14:17;;;;;;;1.10;1.10;;;7.80;99.60;;;;;;4959460;29;20240;-78
2021/03/16 11:16:44;;;;;;;1.10;1.10;;;7.70;99.90;;;;;;4958782;28;20221;-79
2021/03/16 11:19:11;;;;;;;1.00;1.00;;;7.50;99.80;;;;;;4964612;29;20624;-78
2021/03/16 11:21:38;;;;;;;1.20;1.20;;;7.30;99.90;;;;;;4965378;28;20236;-79
2021/03/16 11:24:05;;;;;;;1.20;1.20;;;7.10;99.90;;;;;;4979173;28;20200;-78
2021/03/16 11:26:32;;;;;;;1.30;1.30;;;7.00;99.90;;;;;;4978538;28;20232;-79
2021/03/16 11:29:01;;;;;;;1.30;1.30;;;6.90;99.90;;;;;;4978918;28;20255;-78
2021/03/16 11:31:28;;;;;;;1.17;1.17;;;7.00;99.90;;;;;;4977403;28;20204;-78
2021/03/16 11:33:59;;;;;;;1.10;1.10;;;7.00;99.90;;;;;;4975936;28;20312;-77
2021/03/16 11:36:26;;;;;;;1.20;1.20;;;7.20;99.90;;;;;;4976140;28;20640;-78
2021/03/16 11:38:53;;;;;;;1.17;1.17;;;7.00;99.90;;;;;;4979417;28;20628;-78
2021/03/16 11:41:20;;;;;;;0.90;0.90;;;7.20;99.90;;;;;;4977496;28;20200;-78
2021/03/16 11:43:47;;;;;;;1.10;1.10;;;7.10;99.90;;;;;;4978344;28;20424;-78
2021/03/16 11:46:15;;;;;;;1.10;1.10;;;7.20;99.90;;;;;;4980913;28;20596;-78
2021/03/16 11:48:42;;;;;;;1.03;1.03;;;7.20;99.90;;;;;;4982881;28;20216;-78
2021/03/16 11:51:09;;;;;;;1.20;1.20;;;7.10;99.90;;;;;;4981484;28;20224;-78
2021/03/16 11:53:36;;;;;;;1.10;1.10;;;7.10;99.90;;;;;;4981372;28;20229;-78
2021/03/16 11:56:04;;;;;;;1.00;1.00;;;7.20;99.90;;;;;;4977314;28;20225;-78
2021/03/16 11:58:32;;;;;;;1.03;1.03;;;7.20;99.90;;;;;;4963057;29;20617;-78
2021/03/16 12:00:59;;;;;;;1.00;1.00;;;7.30;99.90;;;;;;4962757;28;20209;-79
2021/03/16 12:03:27;;;;;;;0.93;0.93;;;7.30;99.90;;;;;;4962367;29;20205;-79
2021/03/16 12:05:54;;;;;;;1.10;1.10;;;7.20;99.90;;;;;;4962550;29;20230;-78
2021/03/16 12:08:21;;;;;;;1.10;1.10;;;7.20;99.90;;;;;;4963234;29;20264;-78
2021/03/16 12:10:48;;;;;;;1.17;1.17;;;7.30;99.90;;;;;;4962682;29;20240;-77
2021/03/16 12:13:15;;;;;;;1.03;1.03;;;7.30;99.90;;;;;;4961730;29;20206;-78
2021/03/16 12:15:42;;;;;;;1.00;1.00;;;7.20;99.90;;;;;;4962961;29;20233;-78
2021/03/16 12:18:10;;;;;;;1.10;1.10;;;7.10;99.90;;;;;;4960872;29;20205;-77
2021/03/16 12:20:38;;;;;;;1.20;1.20;;;6.90;99.90;;;;;;4960511;29;20220;-78
2021/03/16 12:23:04;;;;;;;1.10;1.10;;;7.00;99.90;;;;;;4961286;29;20268;-78
2021/03/16 12:25:31;;;;;;;1.10;1.10;;;7.10;99.90;;;;;;4962580;28;20276;-77
2021/03/16 12:27:59;;;;;;;1.37;1.37;;;7.30;99.90;;;;;;4961100;28;20232;-77
2021/03/16 12:30:26;;;;;;;1.33;1.33;;;7.40;99.90;;;;;;4960668;28;20718;-78
2021/03/16 12:32:52;;;;;;;1.23;1.23;;;7.30;99.90;;;;;;4961383;28;20209;-77
2021/03/16 12:35:20;;;;;;;1.10;1.10;;;7.40;99.90;;;;;;4962052;28;20257;-78
2021/03/16 12:37:47;;;;;;;1.20;1.20;;;7.40;99.90;;;;;;4964489;28;20272;-78
2021/03/16 12:40:14;;;;;;;1.10;1.10;;;7.40;99.90;;;;;;4981078;28;20205;-78
2021/03/16 12:42:41;;;;;;;1.10;1.10;;;7.40;99.90;;;;;;4981053;28;20275;-78
2021/03/16 12:45:09;;;;;;;1.10;1.10;;;7.20;99.90;;;;;;4979448;28;20200;-78
2021/03/16 12:47:36;;;;;;;1.10;1.10;;;7.20;99.90;;;;;;4970783;28;20210;-78
2021/03/16 12:50:04;;;;;;;1.10;1.10;;;7.10;99.90;;;;;;4960986;28;20233;-78
2021/03/16 12:52:31;;;;;;;1.10;1.10;;;7.20;99.90;;;;;;4959998;29;20202;-78
2021/03/16 12:54:59;;;;;;;1.10;1.10;;;7.20;99.90;;;;;;4963428;29;20229;-79
2021/03/16 12:57:26;;;;;;;1.20;1.20;;;7.30;99.90;;;;;;4960594;28;20229;-77
2021/03/16 12:59:53;;;;;;;1.00;1.00;;;7.20;99.90;;;;;;4958403;29;20229;-78
2021/03/16 13:02:20;;;;;;;1.20;1.20;;;7.00;99.90;;;;;;4959522;28;20209;-80
2021/03/16 13:04:58;;;;;;;1.20;1.20;;;7.00;99.90;;;;;;4956068;28;20256;-77
2021/03/16 13:07:25;;;;;;;1.13;1.13;;;7.00;99.90;;;;;;4956399;29;20280;-77
2021/03/16 13:09:52;;;;;;;1.20;1.20;;;7.10;99.90;;;;;;4956269;29;20209;-77
2021/03/16 13:12:20;;;;;;;1.00;1.00;;;7.10;99.90;;;;;;4954331;29;20201;-77
2021/03/16 13:14:47;;;;;;;1.30;1.30;;;7.00;99.90;;;;;;4953015;28;20769;-79
2021/03/16 13:17:13;;;;;;;0.93;0.93;;;6.90;99.90;;;;;;4977222;28;20240;-79
2021/03/16 13:19:41;;;;;;;1.10;1.10;;;7.10;99.90;;;;;;4958666;28;20213;-77
2021/03/16 13:22:09;;;;;;;1.00;1.00;;;7.00;99.90;;;;;;4957354;28;20209;-79
2021/03/16 13:24:36;;;;;;;1.20;1.20;;;6.90;99.90;;;;;;4955840;28;20671;-78
2021/03/16 13:27:03;;;;;;;1.20;1.20;;;6.90;99.90;;;;;;4957278;28;20233;-79
2021/03/16 13:29:31;;;;;;;1.10;1.10;;;6.80;99.90;;;;;;4962198;28;20224;-79
2021/03/16 13:31:58;;;;;;;1.10;1.10;;;6.80;99.90;;;;;;4977028;28;20201;-79
2021/03/16 13:34:25;;;;;;;1.13;1.13;;;6.80;99.90;;;;;;4966266;28;20231;-79
2021/03/16 13:36:52;;;;;;;1.00;1.00;;;6.90;99.90;;;;;;4976677;28;20221;-79
2021/03/16 13:39:19;;;;;;;1.10;1.10;;;7.00;99.90;;;;;;4976450;28;20631;-79
2021/03/16 13:41:47;;;;;;;1.00;1.00;;;7.00;99.90;;;;;;4978598;28;20211;-79
2021/03/16 13:44:14;;;;;;;1.07;1.07;;;7.10;99.90;;;;;;4978210;28;20228;-80
2021/03/16 13:46:41;;;;;;;1.20;1.20;;;7.10;99.90;;;;;;4978796;28;20283;-79
2021/03/16 13:49:09;;;;;;;1.00;1.00;;;6.90;99.90;;;;;;4979147;28;20360;-79
2021/03/16 13:51:36;;;;;;;0.97;0.97;;;6.90;99.90;;;;;;4979722;28;20205;-79
2021/03/16 13:54:03;;;;;;;1.10;1.10;;;7.00;99.90;;;;;;4978770;28;20221;-79
2021/03/16 13:56:34;;;;;;;1.13;1.13;;;7.10;99.90;;;;;;4975537;28;20233;-77
2021/03/16 13:59:08;;;;;;;1.10;1.10;;;7.00;99.90;;;;;;4967152;28;20745;-78
2021/03/16 14:01:35;;;;;;;1.00;1.00;;;7.00;99.90;;;;;;4971055;28;20267;-78
2021/03/16 14:04:04;;;;;;;1.10;1.10;;;7.10;99.90;;;;;;4969122;28;20220;-78
2021/03/16 14:06:31;;;;;;;1.20;1.20;;;7.10;99.90;;;;;;4962259;28;20228;-78
2021/03/16 14:08:58;;;;;;;1.33;1.33;;;7.00;99.90;;;;;;4962434;28;20205;-79
2021/03/16 14:11:25;;;;;;;1.10;1.10;;;7.10;99.90;;;;;;4956570;28;20219;-79
2021/03/16 14:13:52;;;;;;;1.13;1.13;;;7.00;99.90;;;;;;4955978;28;20221;-77
2021/03/16 14:16:19;;;;;;;1.00;1.00;;;7.10;99.90;;;;;;4963700;28;20619;-79
2021/03/16 14:18:46;;;;;;;1.10;1.10;;;7.00;99.90;;;;;;4956626;28;20209;-77
2021/03/16 14:21:14;;;;;;;1.17;1.17;;;7.00;99.90;;;;;;4972827;28;20690;-77
2021/03/16 14:23:41;;;;;;;1.10;1.10;;;6.90;99.90;;;;;;4973832;28;20201;-77
2021/03/16 14:26:09;;;;;;;1.20;1.20;;;6.90;99.90;;;;;;4966416;28;20225;-76
2021/03/16 14:28:36;;;;;;;1.20;1.20;;;6.90;99.90;;;;;;4952343;28;20217;-77
2021/03/16 14:31:03;;;;;;;1.00;1.00;;;6.90;99.90;;;;;;4953615;28;20256;-75
2021/03/16 14:33:30;;;;;;;1.10;1.10;;;6.90;99.90;;;;;;4953989;28;20228;-77
2021/03/16 14:35:57;;;;;;;1.00;1.00;;;6.90;99.90;;;;;;4955897;29;20233;-79
2021/03/16 14:38:25;;;;;;;1.20;1.20;;;6.90;99.90;;;;;;4961449;28;20212;-79
2021/03/16 14:40:52;;;;;;;1.00;1.00;;;7.00;99.90;;;;;;4964285;28;20205;-79
2021/03/16 14:43:19;;;;;;;1.10;1.10;;;7.00;99.90;;;;;;4962536;29;20201;-79
2021/03/16 14:45:46;;;;;;;1.10;1.10;;;6.90;99.90;;;;;;4970250;28;20224;-78
2021/03/16 14:48:14;;;;;;;1.17;1.17;;;7.00;99.90;;;;;;4973431;28;20201;-77
2021/03/16 14:50:42;;;;;;;1.10;1.10;;;;;;;;;;4966062;28;20710;-77
2021/03/16 14:53:09;;;;;;;1.20;1.20;;;7.10;99.90;;;;;;4973364;28;20266;-77
2021/03/16 14:55:37;;;;;;;1.00;1.00;;;7.10;99.90;;;;;;4974321;28;20228;-78
2021/03/16 14:58:06;;;;;;;1.10;1.10;;;7.00;99.90;;;;;;4974991;28;20260;-77
2021/03/16 15:00:33;;;;;;;1.10;1.10;;;6.90;99.90;;;;;;4972609;28;20227;-77
2021/03/16 15:03:00;;;;;;;1.10;1.10;;;6.80;99.90;;;;;;4973448;28;20255;-77
2021/03/16 15:05:27;;;;;;;1.30;1.30;;;6.80;99.90;;;;;;4973615;28;20749;-77
2021/03/16 15:07:57;;;;;;;1.10;1.10;;;6.80;99.90;;;;;;4977717;28;20200;-79
2021/03/16 15:10:24;;;;;;;1.10;1.10;;;6.90;99.90;;;;;;4978874;28;20201;-78
2021/03/16 15:12:52;;;;;;;1.20;1.20;;;7.00;99.90;;;;;;4984064;28;20704;-79
2021/03/16 15:15:21;;;;;;;1.17;1.17;;;7.10;99.90;;;;;;4981430;28;20248;-80
2021/03/16 15:17:48;;;;;;;1.00;1.00;;;7.00;99.90;;;;;;4980215;28;20665;-78
2021/03/16 15:20:22;;;;;;;1.17;1.17;;;7.00;99.90;;;;;;4969167;28;20275;-77
2021/03/16 15:22:52;;;;;;;1.10;1.10;;;7.00;99.90;;;;;;4977934;28;20216;-77
2021/03/16 15:25:19;;;;;;;1.10;1.10;;;7.00;99.90;;;;;;4981722;28;20233;-78
2021/03/16 15:27:46;;;;;;;1.10;1.10;;;7.00;99.90;;;;;;4983421;28;20212;-80
2021/03/16 15:30:15;;;;;;;1.10;1.10;;;7.00;99.90;;;;;;4982978;28;20196;-79
2021/03/16 15:32:42;;;;;;;1.10;1.10;;;7.00;99.90;;;;;;4981836;28;20617;-80
2021/03/16 15:35:11;;;;;;;1.33;1.33;;;7.30;99.90;;;;;;4981650;28;20223;-80
2021/03/16 15:37:38;;;;;;;1.30;1.30;;;6.90;99.90;;;;;;4979642;28;20213;-79
2021/03/16 15:40:06;;;;;;;1.00;1.00;;;6.90;99.90;;;;;;4962858;29;20198;-79
2021/03/16 15:42:33;;;;;;;1.00;1.00;;;6.90;99.90;;;;;;4976926;28;20208;-80
2021/03/16 15:45:00;;;;;;;1.20;1.20;;;7.00;99.90;;;;;;4980700;28;20197;-79
2021/03/16 15:47:31;;;;;;;1.10;1.10;;;7.10;99.90;;;;;;4979794;28;20196;-80
2021/03/16 15:49:58;;;;;;;1.17;1.17;;;7.10;99.90;;;;;;4972861;28;20244;-78
2021/03/16 15:52:26;;;;;;;1.10;1.10;;;7.10;99.90;;;;;;4961825;29;20207;-79
2021/03/16 15:54:53;;;;;;;1.20;1.20;;;7.20;99.90;;;;;;4962440;29;20620;-79
2021/03/16 15:57:19;;;;;;;1.17;1.17;;;7.10;99.90;;;;;;4980290;28;20221;-79
2021/03/16 15:59:46;;;;;;;1.10;1.10;;;7.00;99.90;;;;;;4981453;28;20205;-79
2021/03/16 16:02:13;;;;;;;1.10;1.10;;;7.00;99.90;;;;;;4980046;28;20212;-78
2021/03/16 16:04:42;;;;;;;1.10;1.10;;;7.00;99.90;;;;;;4978667;28;20576;-78
2021/03/16 16:07:09;;;;;;;1.00;1.00;;;7.00;99.90;;;;;;4980432;28;20576;-79
2021/03/16 16:09:36;;;;;;;1.07;1.07;;;7.00;99.90;;;;;;4962606;28;20662;-79
2021/03/16 16:12:04;;;;;;;1.10;1.10;;;7.00;99.90;;;;;;4962998;29;20244;-80
2021/03/16 16:14:31;;;;;;;1.20;1.20;;;7.10;99.90;;;;;;4963129;29;20221;-80
2021/03/16 16:16:58;;;;;;;1.10;1.10;;;7.10;99.90;;;;;;4960093;29;20280;-79
2021/03/16 16:19:25;;;;;;;1.13;1.13;;;7.20;99.90;;;;;;4963930;28;20198;-79
2021/03/16 16:21:52;;;;;;;1.00;1.00;;;7.10;99.90;;;;;;4964856;29;20213;-80
2021/03/16 16:24:20;;;;;;;1.10;1.10;;;;;;;;;;4965119;29;20209;-80
2021/03/16 16:26:47;;;;;;;1.10;1.10;;;7.10;99.90;;;;;;4960733;29;20236;-79
2021/03/16 16:29:13;;;;;;;1.07;1.07;;;7.20;99.90;;;;;;4963286;29;20210;-79
2021/03/16 16:31:40;;;;;;;1.10;1.10;;;7.20;99.90;;;;;;4965195;28;20252;-79
2021/03/16 16:34:08;;;;;;;1.13;1.13;;;7.20;99.90;;;;;;4964063;29;20229;-80
2021/03/16 16:36:40;;;;;;;1.10;1.10;;;7.30;99.90;;;;;;4964440;29;20229;-79
2021/03/16 16:39:07;;;;;;;1.13;1.13;;;7.40;99.90;;;;;;4965871;29;20205;-79
2021/03/16 16:41:34;;;;;;;1.10;1.10;;;7.30;99.90;;;;;;4965701;29;20201;-79
2021/03/16 16:44:03;;;;;;;1.00;1.00;;;7.20;99.90;;;;;;4964620;29;20209;-79
2021/03/16 16:46:32;;;;;;;1.10;1.10;;;7.30;99.90;;;;;;4964270;29;20229;-78
2021/03/16 16:48:59;;;;;;;1.10;1.10;;;7.20;99.90;;;;;;4963388;29;20572;-79
2021/03/16 16:51:26;;;;;;;1.10;1.10;;;7.20;99.90;;;;;;4964045;29;20214;-79
2021/03/16 16:53:53;;;;;;;1.20;1.20;;;7.20;99.90;;;;;;4989490;28;20622;-79
2021/03/16 16:56:20;;;;;;;1.00;1.00;;;7.20;99.90;;;;;;4988618;28;20224;-79
2021/03/16 16:58:47;;;;;;;1.00;1.00;;;7.20;99.90;;;;;;4966121;28;20197;-76
2021/03/16 17:01:14;;;;;;;1.20;1.20;;;7.20;99.90;;;;;;4967105;28;20205;-77
2021/03/16 17:03:41;;;;;;;1.00;1.00;;;7.20;99.90;;;;;;4977224;28;20247;-80
2021/03/16 17:06:08;;;;;;;1.05;1.05;;;7.30;99.90;;;;;;4977704;28;20454;-79
2021/03/16 17:08:43;;;;;;;1.00;1.00;;;7.20;99.90;;;;;;4968684;28;20207;-80
2021/03/16 17:11:10;;;;;;;1.00;1.00;;;7.10;99.90;;;;;;4975956;28;20201;-77
2021/03/16 17:13:37;;;;;;;1.00;1.00;;;7.10;99.90;;;;;;4978913;28;20232;-78
2021/03/16 17:16:05;;;;;;;1.17;1.17;;;7.20;99.90;;;;;;4979580;28;20648;-78
2021/03/16 17:18:33;;;;;;;1.00;1.00;;;7.10;99.90;;;;;;4975988;28;20631;-76
2021/03/16 17:21:01;;;;;;;1.10;1.10;;;7.10;99.90;;;;;;4976643;28;20267;-79
2021/03/16 17:23:27;;;;;;;1.17;1.17;;;7.20;99.90;;;;;;4980428;28;20205;-77
2021/03/16 17:25:54;;;;;;;1.17;1.17;;;7.10;99.90;;;;;;4981453;28;20275;-78
2021/03/16 17:28:21;;;;;;;1.10;1.10;;;7.20;99.90;;;;;;4981779;28;20212;-78
2021/03/16 17:30:49;;;;;;;0.90;0.90;;;7.10;99.90;;;;;;4981851;28;20750;-78
2021/03/16 17:33:16;;;;;;;1.07;1.07;;;7.00;99.90;;;;;;4973132;28;20610;-79
2021/03/16 17:35:43;;;;;;;1.00;1.00;;;7.10;99.90;;;;;;4976902;28;20232;-81
2021/03/16 17:38:10;;;;;;;1.00;1.00;;;7.10;99.90;;;;;;4977715;28;20232;-79
2021/03/16 17:40:38;;;;;;;0.90;0.90;;;7.10;99.90;;;;;;4979709;28;20259;-78
2021/03/16 17:43:05;;;;;;;1.17;1.17;;;7.10;99.90;;;;;;4975315;28;20626;-76
2021/03/16 17:45:32;;;;;;;1.30;1.30;;;7.10;99.90;;;;;;4971596;28;20712;-78
2021/03/16 17:48:01;;;;;;;1.10;1.10;;;7.20;99.90;;;;;;4962851;28;20248;-78
2021/03/16 17:50:29;;;;;;;1.00;1.00;;;7.20;99.90;;;;;;4972366;28;20284;-80
2021/03/16 17:52:56;;;;;;;1.00;1.00;;;7.20;99.90;;;;;;4978381;28;20200;-79
2021/03/16 17:55:23;;;;;;;0.90;0.90;;;7.40;99.90;;;;;;4980813;28;20719;-79
2021/03/16 17:57:50;;;;;;;1.03;1.03;;;7.20;99.90;;;;;;4976660;28;20204;-81
2021/03/16 18:00:18;;;;;;;1.00;1.00;;;7.10;99.90;;;;;;4975015;28;20216;-81
2021/03/16 18:02:46;;;;;;;1.00;1.00;;;7.10;99.90;;;;;;4974862;28;20211;-77
2021/03/16 18:05:15;;;;;;;1.17;1.17;;;7.30;99.90;;;;;;4977004;28;20219;-78
2021/03/16 18:07:41;;;;;;;1.07;1.07;;;7.10;99.90;;;;;;4980079;28;20255;-78
2021/03/16 18:10:10;;;;;;;1.07;1.07;;;7.20;99.90;;;;;;4976770;28;20204;-77
2021/03/16 18:12:36;;;;;;;0.93;0.93;;;7.20;99.90;;;;;;4975519;28;20209;-78
2021/03/16 18:15:04;;;;;;;1.00;1.00;;;7.30;99.90;;;;;;4978688;28;20223;-79
2021/03/16 18:17:31;;;;;;;1.00;1.00;;;7.20;99.90;;;;;;4973533;28;20283;-77
2021/03/16 18:19:58;;;;;;;1.10;1.10;;;7.20;99.90;;;;;;4970087;28;20233;-79